Time;durP1;ratioP1;P1;durP2;ratioP2;P2;SDS_P1;SDS_P2;PMS_P1;PMS_P2;Temp;Humidity;BMP_temperature;BMP_pressure;BME280_temperature;BME280_humidity;BME280_pressure;Samples;Min_cycle;Max_cycle;Signal;HPM_P1;HPM_P2
2023/09/05 00:01:54;;;;;;;;;;;23.50;1.00;;;;;;4996757;28;20382;-60
2023/09/05 00:04:21;;;;;;;;;;;23.50;1.00;;;;;;4996599;28;20313;-60
2023/09/05 00:06:48;;;;;;;;;;;23.50;1.00;;;;;;4996597;28;20271;-61
2023/09/05 00:09:17;;;;;;;;;;;23.50;1.00;;;;;;4996663;28;19926;-60
2023/09/05 00:11:45;;;;;;;;;;;23.40;1.00;;;;;;4996583;28;19926;-61
2023/09/05 00:14:12;;;;;;;;;;;23.40;1.00;;;;;;4996343;28;20017;-60
2023/09/05 00:16:38;;;;;;;;;;;23.40;1.00;;;;;;4996899;28;19980;-60
2023/09/05 00:19:05;;;;;;;;;;;23.40;1.00;;;;;;4996377;28;20405;-61
2023/09/05 00:21:32;;;;;;;;;;;23.50;1.00;;;;;;4996434;28;19929;-61
2023/09/05 00:24:18;;;;;;;;;;;23.50;1.00;;;;;;4996221;28;20028;-61
2023/09/05 00:26:46;;;;;;;;;;;23.40;1.00;;;;;;5535529;23;20293;-60
2023/09/05 00:29:12;;;;;;;;;;;23.40;1.00;;;;;;4974946;28;20017;-59
2023/09/05 00:31:40;;;;;;;;;;;23.40;1.00;;;;;;4957446;28;19966;-59
2023/09/05 00:34:07;;;;;;;;;;;23.40;1.00;;;;;;4955889;28;19955;-61
2023/09/05 00:36:34;;;;;;;;;;;23.40;1.00;;;;;;4955815;28;19973;-61
2023/09/05 00:39:02;;;;;;;;;;;23.40;1.00;;;;;;4953229;28;19931;-60
2023/09/05 00:41:29;;;;;;;;;;;23.40;1.00;;;;;;4957420;28;20297;-60
2023/09/05 00:43:56;;;;;;;;;;;23.40;1.00;;;;;;4955833;29;19930;-61
2023/09/05 00:46:22;;;;;;;;;;;23.40;1.00;;;;;;4968695;28;19926;-60
2023/09/05 00:48:50;;;;;;;;;;;23.40;1.00;;;;;;4976489;28;19926;-59
2023/09/05 00:51:18;;;;;;;;;;;23.40;1.00;;;;;;4959143;28;20018;-60
2023/09/05 00:53:44;;;;;;;;;;;23.40;1.00;;;;;;4958738;28;19926;-61
2023/09/05 00:56:11;;;;;;;;;;;23.40;1.00;;;;;;4958778;28;19930;-61
2023/09/05 00:58:38;;;;;;;;;;;23.40;1.00;;;;;;5244363;23;20881;-60
2023/09/05 01:01:04;;;;;;;;;;;23.40;1.00;;;;;;4991720;28;19974;-60
2023/09/05 01:03:31;;;;;;;;;;;23.40;1.00;;;;;;4993996;28;19965;-58
2023/09/05 01:06:04;;;;;;;;;;;23.40;1.00;;;;;;4995579;28;19925;-58
2023/09/05 01:08:36;;;;;;;;;;;23.40;1.00;;;;;;4994949;28;19934;-61
2023/09/05 01:11:08;;;;;;;;;;;23.40;1.00;;;;;;4994242;28;19926;-59
2023/09/05 01:13:38;;;;;;;;;;;23.40;1.00;;;;;;4993991;28;19973;-60
2023/09/05 01:16:05;;;;;;;;;;;23.40;1.00;;;;;;4994217;28;19957;-60
2023/09/05 01:18:39;;;;;;;;;;;23.30;1.00;;;;;;4993064;28;20020;-60
2023/09/05 01:21:21;;;;;;;;;;;23.40;1.00;;;;;;4977860;28;19980;-58
2023/09/05 01:24:08;;;;;;;;;;;23.30;1.00;;;;;;4977749;28;20382;-59
2023/09/05 01:26:35;;;;;;;;;;;23.40;1.00;;;;;;4977760;28;20117;-60
2023/09/05 01:29:02;;;;;;;;;;;23.30;1.00;;;;;;4977571;28;19933;-60
2023/09/05 01:31:29;;;;;;;;;;;23.40;1.00;;;;;;5193221;23;19989;-59
2023/09/05 01:33:56;;;;;;;;;;;23.40;1.00;;;;;;4942862;29;19957;-58
2023/09/05 01:36:22;;;;;;;;;;;23.40;1.00;;;;;;4954403;29;19935;-60
2023/09/05 01:38:50;;;;;;;;;;;23.30;1.00;;;;;;4970644;28;19948;-60
2023/09/05 01:41:17;;;;;;;;;;;23.30;1.00;;;;;;4950139;28;19933;-60
2023/09/05 01:43:43;;;;;;;;;;;23.30;1.00;;;;;;4957943;28;20021;-60
2023/09/05 01:46:10;;;;;;;;;;;23.30;1.00;;;;;;4975395;28;20291;-60
2023/09/05 01:48:37;;;;;;;;;;;23.30;1.00;;;;;;4975638;28;20279;-60
2023/09/05 01:51:04;;;;;;;;;;;23.30;1.00;;;;;;4958046;28;19930;-60
2023/09/05 01:53:31;;;;;;;;;;;23.30;1.00;;;;;;4957696;28;19927;-60
2023/09/05 01:55:57;;;;;;;;;;;23.30;1.00;;;;;;4957947;28;19926;-61
2023/09/05 01:58:24;;;;;;;;;;;23.30;1.00;;;;;;4957770;28;19945;-61
2023/09/05 02:00:51;;;;;;;;;;;23.30;1.00;;;;;;4957948;28;19977;-61
2023/09/05 02:05:58;;;;;;;;;;;23.30;1.00;;;;;;4952308;28;19933;-60
2023/09/05 02:08:25;;;;;;;;;;;23.30;1.00;;;;;;4955755;29;19977;-61
2023/09/05 02:10:51;;;;;;;;;;;23.30;1.00;;;;;;4970615;28;19949;-60
2023/09/05 02:13:18;;;;;;;;;;;23.30;1.00;;;;;;4970194;28;20079;-58
2023/09/05 02:15:45;;;;;;;;;;;23.30;1.00;;;;;;4970260;28;19958;-60
2023/09/05 02:18:12;;;;;;;;;;;23.30;1.00;;;;;;4955462;29;19941;-60
2023/09/05 02:20:39;;;;;;;;;;;23.30;1.00;;;;;;4954619;28;19926;-59
2023/09/05 02:23:06;;;;;;;;;;;23.30;1.00;;;;;;4938278;29;19926;-59
2023/09/05 02:25:33;;;;;;;;;;;23.30;1.00;;;;;;4946403;29;20363;-59
2023/09/05 02:28:00;;;;;;;;;;;23.30;1.00;;;;;;4954132;29;19982;-60
2023/09/05 02:30:26;;;;;;;;;;;23.30;1.00;;;;;;4954001;29;19934;-61
2023/09/05 02:32:54;;;;;;;;;;;23.30;1.00;;;;;;4969968;28;20029;-60
2023/09/05 02:35:24;;;;;;;;;;;23.30;1.00;;;;;;5025286;23;19925;-60
2023/09/05 02:37:51;;;;;;;;;;;23.30;1.00;;;;;;4974841;28;20012;-60
2023/09/05 02:40:19;;;;;;;;;;;23.20;1.00;;;;;;4958038;28;19926;-60
2023/09/05 02:42:46;;;;;;;;;;;23.30;1.00;;;;;;4975851;28;19932;-60
2023/09/05 02:45:12;;;;;;;;;;;23.30;1.00;;;;;;4957921;28;20453;-60
2023/09/05 02:47:40;;;;;;;;;;;23.30;1.00;;;;;;4958049;28;19930;-61
2023/09/05 02:50:07;;;;;;;;;;;23.30;1.00;;;;;;4957209;28;20444;-61
2023/09/05 02:52:34;;;;;;;;;;;23.30;1.00;;;;;;4957117;28;19930;-61
2023/09/05 02:55:13;;;;;;;;;;;23.30;1.00;;;;;;4953454;28;19930;-61
2023/09/05 02:57:40;;;;;;;;;;;23.20;1.00;;;;;;4953579;29;19938;-61
2023/09/05 03:00:07;;;;;;;;;;;23.20;1.00;;;;;;4955050;28;19926;-60
2023/09/05 03:02:35;;;;;;;;;;;23.20;1.00;;;;;;4964945;28;19973;-59
2023/09/05 03:05:03;;;;;;;;;;;23.20;1.00;;;;;;5092875;23;19948;-60
2023/09/05 03:07:31;;;;;;;;;;;23.20;1.00;;;;;;4964113;28;19934;-59
2023/09/05 03:09:58;;;;;;;;;;;23.20;1.00;;;;;;4971267;28;19926;-60
2023/09/05 03:12:25;;;;;;;;;;;23.20;1.00;;;;;;4961791;28;19926;-61
2023/09/05 03:14:52;;;;;;;;;;;23.20;1.00;;;;;;4966014;28;20355;-61
2023/09/05 03:17:19;;;;;;;;;;;23.20;1.00;;;;;;4975702;28;19927;-61
2023/09/05 03:19:45;;;;;;;;;;;23.20;1.00;;;;;;4972133;28;19930;-61
2023/09/05 03:22:12;;;;;;;;;;;23.20;1.00;;;;;;4972729;28;19934;-58
2023/09/05 03:24:39;;;;;;;;;;;23.20;1.00;;;;;;4972050;28;20294;-59
2023/09/05 03:27:06;;;;;;;;;;;23.10;1.00;;;;;;4971767;28;19926;-59
2023/09/05 03:29:32;;;;;;;;;;;23.20;1.00;;;;;;4993361;28;20297;-58
2023/09/05 03:31:59;;;;;;;;;;;23.20;1.00;;;;;;4985007;28;19932;-61
2023/09/05 03:34:26;;;;;;;;;;;23.20;1.00;;;;;;4975587;28;19957;-60
2023/09/05 03:36:53;;;;;;;;;;;23.10;1.00;;;;;;5474476;23;19933;-59
2023/09/05 03:39:20;;;;;;;;;;;23.20;1.00;;;;;;4969883;28;19933;-60
2023/09/05 03:41:46;;;;;;;;;;;23.20;1.00;;;;;;4973753;28;19932;-59
2023/09/05 03:44:16;;;;;;;;;;;23.20;1.00;;;;;;4972067;28;19926;-60
2023/09/05 03:46:44;;;;;;;;;;;23.10;1.00;;;;;;4957680;28;19926;-59
2023/09/05 03:49:11;;;;;;;;;;;23.10;1.00;;;;;;4954189;29;20298;-61
2023/09/05 03:51:38;;;;;;;;;;;23.20;1.00;;;;;;4953931;29;19934;-60
2023/09/05 03:54:05;;;;;;;;;;;23.10;1.00;;;;;;4936706;29;19933;-61
2023/09/05 03:56:32;;;;;;;;;;;23.10;1.00;;;;;;4936028;29;20525;-60
2023/09/05 03:58:59;;;;;;;;;;;23.10;1.00;;;;;;4954160;28;19936;-61
2023/09/05 04:01:26;;;;;;;;;;;23.10;1.00;;;;;;4954018;28;20021;-61
2023/09/05 04:03:53;;;;;;;;;;;23.10;1.00;;;;;;4936554;29;20375;-58
2023/09/05 04:06:19;;;;;;;;;;;23.10;1.00;;;;;;4936183;29;20288;-60
2023/09/05 04:08:46;;;;;;;;;;;23.10;1.00;;;;;;5090488;23;19949;-60
2023/09/05 04:11:13;;;;;;;;;;;23.10;1.00;;;;;;4959604;28;19932;-60
2023/09/05 04:13:39;;;;;;;;;;;23.10;1.00;;;;;;4945491;28;20171;-59
2023/09/05 04:16:07;;;;;;;;;;;23.10;1.00;;;;;;4955801;28;20321;-60
2023/09/05 04:18:34;;;;;;;;;;;23.10;1.00;;;;;;4955612;28;20275;-61
2023/09/05 04:21:01;;;;;;;;;;;23.00;1.00;;;;;;4955923;28;19927;-61
2023/09/05 04:23:28;;;;;;;;;;;23.00;1.00;;;;;;4954683;28;20496;-62
2023/09/05 04:25:57;;;;;;;;;;;23.00;1.00;;;;;;4954357;28;20024;-62
2023/09/05 04:28:25;;;;;;;;;;;23.00;1.00;;;;;;4955866;28;20406;-62
2023/09/05 04:30:55;;;;;;;;;;;23.00;1.00;;;;;;4955722;28;19926;-62
2023/09/05 04:33:23;;;;;;;;;;;23.00;1.00;;;;;;4972882;28;19981;-62
2023/09/05 04:35:50;;;;;;;;;;;23.00;1.00;;;;;;4955664;28;19933;-62
2023/09/05 04:41:21;;;;;;;;;;;23.00;1.00;;;;;;4952074;29;19981;-61
2023/09/05 04:43:50;;;;;;;;;;;23.00;1.00;;;;;;4952783;28;19969;-61
2023/09/05 04:46:17;;;;;;;;;;;23.00;1.00;;;;;;4957359;29;20417;-61
2023/09/05 04:48:44;;;;;;;;;;;23.00;1.00;;;;;;4957258;28;19926;-61
2023/09/05 04:51:11;;;;;;;;;;;23.00;1.00;;;;;;4957109;29;20402;-61
2023/09/05 04:53:38;;;;;;;;;;;23.00;1.00;;;;;;4953247;28;20006;-61
2023/09/05 04:56:05;;;;;;;;;;;23.00;1.00;;;;;;4955809;28;19926;-61
2023/09/05 04:58:32;;;;;;;;;;;22.90;1.00;;;;;;4954552;29;19926;-61
2023/09/05 05:01:03;;;;;;;;;;;22.90;1.00;;;;;;4956520;28;19950;-60
2023/09/05 05:03:31;;;;;;;;;;;22.90;1.00;;;;;;4956659;28;19978;-60
2023/09/05 05:05:57;;;;;;;;;;;22.90;1.00;;;;;;4956779;28;20284;-61
2023/09/05 05:08:25;;;;;;;;;;;22.90;1.00;;;;;;4956759;29;20017;-61
2023/09/05 05:10:52;;;;;;;;;;;22.90;1.00;;;;;;5044446;22;19925;-61
2023/09/05 05:13:20;;;;;;;;;;;22.90;1.00;;;;;;4995579;28;20016;-61
2023/09/05 05:15:47;;;;;;;;;;;22.90;1.00;;;;;;4995418;28;19929;-60
2023/09/05 05:18:14;;;;;;;;;;;22.90;1.00;;;;;;4995534;28;20460;-61
2023/09/05 05:20:41;;;;;;;;;;;22.90;1.00;;;;;;4995318;28;19972;-61
2023/09/05 05:23:08;;;;;;;;;;;22.90;1.00;;;;;;4995575;28;19940;-61
2023/09/05 05:25:35;;;;;;;;;;;22.90;1.00;;;;;;4995134;28;19957;-61
2023/09/05 05:28:02;;;;;;;;;;;22.90;1.00;;;;;;4995771;28;20389;-61
2023/09/05 05:30:34;;;;;;;;;;;22.90;1.00;;;;;;4997204;28;19932;-61
2023/09/05 05:33:01;;;;;;;;;;;22.90;1.00;;;;;;4998224;28;19992;-61
2023/09/05 05:35:27;;;;;;;;;;;22.90;1.00;;;;;;5000072;28;19925;-61
2023/09/05 05:37:54;;;;;;;;;;;22.90;1.00;;;;;;4998122;28;19926;-61
2023/09/05 05:40:21;;;;;;;;;;;22.90;1.00;;;;;;5123115;23;20349;-60
2023/09/05 05:42:48;;;;;;;;;;;22.90;1.00;;;;;;4975546;28;19926;-61
2023/09/05 05:45:15;;;;;;;;;;;22.90;1.00;;;;;;4972034;28;19927;-61
2023/09/05 05:47:41;;;;;;;;;;;22.90;1.00;;;;;;4956247;29;19934;-61
2023/09/05 05:50:09;;;;;;;;;;;22.90;1.00;;;;;;4956033;29;19927;-62
2023/09/05 05:52:38;;;;;;;;;;;22.90;1.00;;;;;;4955930;29;20013;-62
2023/09/05 05:55:06;;;;;;;;;;;22.90;1.00;;;;;;4955616;28;19926;-60
2023/09/05 05:57:33;;;;;;;;;;;22.90;1.00;;;;;;4955816;29;19933;-61
2023/09/05 05:59:59;;;;;;;;;;;22.90;1.00;;;;;;4955913;29;19926;-62
2023/09/05 06:02:26;;;;;;;;;;;22.90;1.00;;;;;;4955646;29;19962;-61
2023/09/05 06:04:53;;;;;;;;;;;22.90;1.00;;;;;;4955699;28;20024;-62
2023/09/05 06:07:19;;;;;;;;;;;22.90;1.00;;;;;;4955780;29;20347;-62
2023/09/05 06:09:46;;;;;;;;;;;22.80;1.00;;;;;;4955746;29;19934;-61
2023/09/05 06:12:13;;;;;;;;;;;22.90;1.00;;;;;;5572443;23;19981;-61
2023/09/05 06:14:40;;;;;;;;;;;22.80;1.00;;;;;;4972867;28;20025;-61
2023/09/05 06:17:06;;;;;;;;;;;22.80;1.00;;;;;;4974779;28;19930;-61
2023/09/05 06:19:33;;;;;;;;;;;22.90;1.00;;;;;;4975103;28;19926;-61
2023/09/05 06:22:00;;;;;;;;;;;22.90;1.00;;;;;;4974752;28;19926;-61
2023/09/05 06:24:27;;;;;;;;;;;22.90;1.00;;;;;;4974715;28;19999;-62
2023/09/05 06:26:53;;;;;;;;;;;22.90;1.00;;;;;;4958707;28;20024;-62
2023/09/05 06:29:20;;;;;;;;;;;22.90;1.00;;;;;;4974838;28;20017;-61
2023/09/05 06:31:48;;;;;;;;;;;22.90;1.00;;;;;;4974525;28;19927;-60
2023/09/05 06:34:16;;;;;;;;;;;22.90;1.00;;;;;;4974249;28;19973;-61
2023/09/05 06:36:42;;;;;;;;;;;22.90;1.00;;;;;;4974263;28;20025;-61
2023/09/05 06:39:10;;;;;;;;;;;22.90;1.00;;;;;;4974525;28;20021;-61
2023/09/05 06:41:39;;;;;;;;;;;22.90;1.00;;;;;;4974250;28;19976;-61
2023/09/05 06:44:06;;;;;;;;;;;22.90;1.00;;;;;;4970031;28;20290;-61
2023/09/05 06:46:35;;;;;;;;;;;22.90;1.00;;;;;;4974206;28;20021;-60
2023/09/05 06:49:03;;;;;;;;;;;22.90;1.00;;;;;;4974311;28;19926;-61
2023/09/05 06:51:30;;;;;;;;;;;22.90;1.00;;;;;;4973745;28;20369;-61
2023/09/05 06:53:58;;;;;;;;;;;22.90;1.00;;;;;;4965705;28;19937;-60
2023/09/05 06:56:25;;;;;;;;;;;22.90;1.00;;;;;;4974092;28;19933;-61
2023/09/05 06:58:52;;;;;;;;;;;22.90;1.00;;;;;;4974034;28;19972;-61
2023/09/05 07:01:19;;;;;;;;;;;22.90;1.00;;;;;;4974124;28;19926;-61
2023/09/05 07:03:45;;;;;;;;;;;22.90;1.00;;;;;;4971749;28;19961;-59
2023/09/05 07:06:13;;;;;;;;;;;22.90;1.00;;;;;;4967957;28;19926;-60
2023/09/05 07:08:40;;;;;;;;;;;22.90;1.00;;;;;;4973621;28;20429;-62
2023/09/05 07:11:07;;;;;;;;;;;22.90;1.00;;;;;;4973903;28;19929;-61
2023/09/05 07:16:41;;;;;;;;;;;22.90;1.00;;;;;;4970895;28;20355;-61
2023/09/05 07:19:07;;;;;;;;;;;22.90;1.00;;;;;;4973876;28;20029;-60
2023/09/05 07:21:36;;;;;;;;;;;23.00;1.00;;;;;;4973604;28;19957;-61
2023/09/05 07:24:02;;;;;;;;;;;22.90;1.00;;;;;;4973709;28;20398;-61
2023/09/05 07:26:29;;;;;;;;;;;23.00;1.00;;;;;;4973701;28;19981;-61
2023/09/05 07:28:56;;;;;;;;;;;23.00;1.00;;;;;;4973789;28;19973;-61
2023/09/05 07:31:25;;;;;;;;;;;23.00;1.00;;;;;;4973580;28;19926;-61
2023/09/05 07:33:52;;;;;;;;;;;22.90;1.00;;;;;;4973411;28;19933;-61
2023/09/05 07:36:19;;;;;;;;;;;23.00;1.00;;;;;;4973239;28;19926;-61
2023/09/05 07:38:46;;;;;;;;;;;23.00;1.00;;;;;;4973410;28;19933;-61
2023/09/05 07:41:12;;;;;;;;;;;23.00;1.00;;;;;;4973761;28;19973;-61
2023/09/05 07:43:39;;;;;;;;;;;23.00;1.00;;;;;;4972173;28;19926;-61
2023/09/05 07:46:06;;;;;;;;;;;23.00;1.00;;;;;;5005714;23;19925;-61
2023/09/05 07:48:33;;;;;;;;;;;23.00;1.00;;;;;;4993156;28;20301;-59
2023/09/05 07:51:01;;;;;;;;;;;23.00;1.00;;;;;;4992748;28;20024;-61
2023/09/05 07:53:33;;;;;;;;;;;23.00;1.00;;;;;;4992707;28;19926;-60
2023/09/05 07:56:00;;;;;;;;;;;23.00;1.00;;;;;;4992710;28;20293;-61
2023/09/05 07:58:27;;;;;;;;;;;23.00;1.00;;;;;;4992892;28;19925;-61
2023/09/05 08:00:54;;;;;;;;;;;23.00;1.00;;;;;;4992657;28;19957;-61
2023/09/05 08:03:22;;;;;;;;;;;23.00;1.00;;;;;;4992774;28;20179;-61
2023/09/05 08:05:50;;;;;;;;;;;23.00;1.00;;;;;;4992896;28;19942;-62
2023/09/05 08:08:17;;;;;;;;;;;23.10;1.00;;;;;;4992765;28;19973;-62
2023/09/05 08:10:44;;;;;;;;;;;23.00;1.00;;;;;;4992481;28;19932;-62
2023/09/05 08:13:12;;;;;;;;;;;23.00;1.00;;;;;;4992690;28;19957;-61
2023/09/05 08:15:40;;;;;;;;;;;23.10;1.00;;;;;;5099344;23;19925;-62
2023/09/05 08:18:07;;;;;;;;;;;23.10;1.00;;;;;;5013118;28;20381;-61
2023/09/05 08:20:35;;;;;;;;;;;23.10;1.00;;;;;;5017105;28;19930;-61
2023/09/05 08:23:02;;;;;;;;;;;23.10;1.00;;;;;;5017471;28;19925;-62
2023/09/05 08:25:29;;;;;;;;;;;23.10;1.00;;;;;;5017330;28;19929;-62
2023/09/05 08:27:56;;;;;;;;;;;23.10;1.00;;;;;;5017135;28;19929;-60
2023/09/05 08:30:27;;;;;;;;;;;23.10;1.00;;;;;;5016901;28;19957;-61
2023/09/05 08:32:55;;;;;;;;;;;23.10;1.00;;;;;;5016734;28;19968;-62
2023/09/05 08:35:22;;;;;;;;;;;23.10;1.00;;;;;;5015471;28;19926;-62
2023/09/05 08:37:48;;;;;;;;;;;23.10;1.00;;;;;;5015701;28;19968;-61
2023/09/05 08:40:15;;;;;;;;;;;23.10;1.00;;;;;;5015824;28;20017;-62
2023/09/05 08:42:44;;;;;;;;;;;23.10;1.00;;;;;;5015801;28;19935;-61
2023/09/05 08:48:06;;;;;;;;;;;23.10;1.00;;;;;;5087171;23;19953;-59
2023/09/05 08:50:34;;;;;;;;;;;23.20;1.00;;;;;;4976329;28;20030;-61
2023/09/05 08:53:02;;;;;;;;;;;23.20;1.00;;;;;;4976366;28;20020;-62
2023/09/05 08:55:29;;;;;;;;;;;23.20;1.00;;;;;;4976455;28;19933;-61
2023/09/05 08:57:57;;;;;;;;;;;23.20;1.00;;;;;;4976140;28;20001;-61
2023/09/05 09:00:24;;;;;;;;;;;23.20;1.00;;;;;;4976167;28;19933;-61
2023/09/05 09:02:52;;;;;;;;;;;23.20;1.00;;;;;;4976065;28;20309;-61
2023/09/05 09:05:19;;;;;;;;;;;23.20;1.00;;;;;;4976020;28;19962;-61
2023/09/05 09:07:46;;;;;;;;;;;23.20;1.00;;;;;;4975962;28;19930;-62
2023/09/05 09:10:17;;;;;;;;;;;23.20;1.00;;;;;;4976055;28;20014;-62
2023/09/05 09:12:44;;;;;;;;;;;23.20;1.00;;;;;;4976001;28;19934;-62
2023/09/05 09:15:12;;;;;;;;;;;23.20;1.00;;;;;;4975719;28;19973;-61
2023/09/05 09:17:42;;;;;;;;;;;23.20;1.00;;;;;;4975871;28;19926;-62
2023/09/05 09:20:12;;;;;;;;;;;23.30;1.00;;;;;;5099492;23;19976;-58
2023/09/05 09:22:39;;;;;;;;;;;23.20;1.00;;;;;;5014812;28;20444;-62
2023/09/05 09:25:14;;;;;;;;;;;23.30;1.00;;;;;;5012085;28;20381;-61
2023/09/05 09:27:42;;;;;;;;;;;23.20;1.00;;;;;;4995093;28;19988;-61
2023/09/05 09:30:09;;;;;;;;;;;23.20;1.00;;;;;;4994650;28;19926;-61
2023/09/05 09:32:36;;;;;;;;;;;23.30;1.00;;;;;;4994562;28;19926;-61
2023/09/05 09:35:06;;;;;;;;;;;23.30;1.00;;;;;;4995146;28;20020;-62
2023/09/05 09:37:33;;;;;;;;;;;23.30;1.00;;;;;;4994987;28;20454;-62
2023/09/05 09:40:01;;;;;;;;;;;23.30;1.00;;;;;;4994973;28;19932;-60
2023/09/05 09:42:27;;;;;;;;;;;23.30;1.00;;;;;;4994916;28;19926;-62
2023/09/05 09:44:54;;;;;;;;;;;23.30;1.00;;;;;;4986515;28;20025;-61
2023/09/05 09:47:24;;;;;;;;;;;23.30;1.00;;;;;;4994765;28;19961;-62
2023/09/05 09:49:51;;;;;;;;;;;23.30;1.00;;;;;;4994211;28;19981;-61
2023/09/05 09:52:21;;;;;;;;;;;23.30;1.00;;;;;;4995185;28;19933;-61
2023/09/05 09:54:53;;;;;;;;;;;23.30;1.00;;;;;;4994329;28;20382;-61
2023/09/05 09:57:33;;;;;;;;;;;23.30;1.00;;;;;;4994821;28;20016;-60
2023/09/05 10:00:11;;;;;;;;;;;23.30;1.00;;;;;;4994721;28;19932;-60
2023/09/05 10:02:38;;;;;;;;;;;23.30;1.00;;;;;;4994445;28;19981;-60
2023/09/05 10:05:05;;;;;;;;;;;23.30;1.00;;;;;;4994314;28;19926;-59
2023/09/05 10:07:33;;;;;;;;;;;23.30;1.00;;;;;;4994751;28;20633;-61
2023/09/05 10:09:59;;;;;;;;;;;23.30;1.00;;;;;;4994536;28;19932;-60
2023/09/05 10:12:26;;;;;;;;;;;23.30;1.00;;;;;;4994361;28;19932;-60
2023/09/05 10:14:55;;;;;;;;;;;23.30;1.00;;;;;;4994227;28;19966;-60
2023/09/05 10:17:22;;;;;;;;;;;23.30;1.00;;;;;;4994283;28;20505;-60
2023/09/05 10:19:49;;;;;;;;;;;23.30;1.00;;;;;;4993472;28;20016;-60
2023/09/05 10:22:16;;;;;;;;;;;23.30;1.00;;;;;;4993821;28;19972;-61
2023/09/05 10:24:44;;;;;;;;;;;23.30;1.00;;;;;;4994125;28;19934;-60
2023/09/05 10:27:11;;;;;;;;;;;23.30;1.00;;;;;;4993891;28;19930;-60
2023/09/05 10:29:44;;;;;;;;;;;23.30;1.00;;;;;;4993895;28;19926;-62
2023/09/05 10:32:14;;;;;;;;;;;23.30;1.00;;;;;;4993883;28;19926;-62
2023/09/05 10:34:47;;;;;;;;;;;23.30;1.00;;;;;;4993769;28;19957;-61
2023/09/05 10:37:23;;;;;;;;;;;23.40;1.00;;;;;;4993767;28;20385;-62
2023/09/05 10:39:54;;;;;;;;;;;23.30;1.00;;;;;;4976495;28;20008;-59
2023/09/05 10:42:26;;;;;;;;;;;23.40;1.00;;;;;;4992729;28;19957;-63
2023/09/05 10:44:53;;;;;;;;;;;23.30;1.00;;;;;;4993543;28;19972;-61
2023/09/05 10:47:23;;;;;;;;;;;23.40;1.00;;;;;;4993679;28;19926;-61
2023/09/05 10:52:47;;;;;;;;;;;23.40;1.00;;;;;;4953111;29;20341;-61
2023/09/05 10:55:19;;;;;;;;;;;23.40;1.00;;;;;;4954686;28;19965;-60
2023/09/05 10:57:50;;;;;;;;;;;23.40;1.00;;;;;;4954668;29;19930;-61
2023/09/05 11:00:18;;;;;;;;;;;23.40;1.00;;;;;;4954832;28;19977;-61
2023/09/05 11:02:45;;;;;;;;;;;23.40;1.00;;;;;;4954855;28;19930;-61
2023/09/05 11:05:13;;;;;;;;;;;23.40;1.00;;;;;;4954479;29;19928;-60
2023/09/05 11:07:43;;;;;;;;;;;23.40;1.00;;;;;;4954789;28;20013;-61
2023/09/05 11:10:11;;;;;;;;;;;23.40;1.00;;;;;;4954927;29;19933;-60
2023/09/05 11:12:38;;;;;;;;;;;23.40;1.00;;;;;;4954536;28;19926;-61
2023/09/05 11:15:06;;;;;;;;;;;23.40;1.00;;;;;;4954593;29;19930;-62
2023/09/05 11:17:33;;;;;;;;;;;23.40;1.00;;;;;;4954929;28;20472;-61
2023/09/05 11:20:00;;;;;;;;;;;23.40;1.00;;;;;;4955576;29;19933;-62
2023/09/05 11:22:26;;;;;;;;;;;23.40;1.00;;;;;;5306253;23;19940;-60
2023/09/05 11:24:58;;;;;;;;;;;23.40;1.00;;;;;;5013972;28;20019;-61
2023/09/05 11:27:26;;;;;;;;;;;23.40;1.00;;;;;;5013717;28;20373;-61
2023/09/05 11:29:55;;;;;;;;;;;23.40;1.00;;;;;;5011682;28;20032;-61
2023/09/05 11:32:29;;;;;;;;;;;23.40;1.00;;;;;;5012627;28;19925;-61
2023/09/05 11:34:55;;;;;;;;;;;23.40;1.00;;;;;;5012277;28;19995;-61
2023/09/05 11:37:22;;;;;;;;;;;23.40;1.00;;;;;;5012491;28;20403;-61
2023/09/05 11:39:50;;;;;;;;;;;23.40;1.00;;;;;;5012469;28;19926;-62
2023/09/05 11:42:30;;;;;;;;;;;23.40;1.00;;;;;;5012320;28;19933;-62
2023/09/05 11:44:57;;;;;;;;;;;23.40;1.00;;;;;;5012220;28;19965;-61
2023/09/05 11:47:25;;;;;;;;;;;23.40;1.00;;;;;;5012348;28;19953;-63
2023/09/05 11:49:55;;;;;;;;;;;23.40;1.00;;;;;;5012347;28;19972;-60
2023/09/05 11:52:22;;;;;;;;;;;23.40;1.00;;;;;;5012613;28;19930;-61
2023/09/05 11:54:50;;;;;;;;;;;23.40;1.00;;;;;;5177924;23;19926;-61
2023/09/05 11:57:18;;;;;;;;;;;23.40;1.00;;;;;;4998640;28;19941;-61
2023/09/05 11:59:45;;;;;;;;;;;23.40;1.00;;;;;;4999243;28;20025;-60
2023/09/05 12:02:15;;;;;;;;;;;23.40;1.00;;;;;;4999096;28;19926;-60
2023/09/05 12:04:41;;;;;;;;;;;23.40;1.00;;;;;;4998865;28;19926;-61
2023/09/05 12:07:09;;;;;;;;;;;23.40;1.00;;;;;;4990862;28;19969;-62
2023/09/05 12:09:35;;;;;;;;;;;23.50;1.00;;;;;;4999155;28;19968;-60
2023/09/05 12:12:10;;;;;;;;;;;23.50;1.00;;;;;;4998941;28;20092;-62
2023/09/05 12:15:04;;;;;;;;;;;23.50;1.00;;;;;;4998887;28;20421;-63
2023/09/05 12:17:31;;;;;;;;;;;23.50;1.00;;;;;;4997259;28;19933;-62
2023/09/05 12:19:58;;;;;;;;;;;23.40;1.00;;;;;;4999453;28;19930;-61
2023/09/05 12:22:29;;;;;;;;;;;23.50;1.00;;;;;;4998851;28;20499;-61
2023/09/05 12:25:08;;;;;;;;;;;23.40;1.00;;;;;;4978087;28;20003;-60
2023/09/05 12:27:38;;;;;;;;;;;23.50;1.00;;;;;;4998812;28;19926;-65
2023/09/05 12:30:09;;;;;;;;;;;23.50;1.00;;;;;;4998947;28;19973;-61
2023/09/05 12:32:37;;;;;;;;;;;23.40;1.00;;;;;;4998764;28;19926;-59
2023/09/05 12:35:04;;;;;;;;;;;23.40;1.00;;;;;;4998332;28;20361;-62
2023/09/05 12:37:31;;;;;;;;;;;23.40;1.00;;;;;;4991574;28;19980;-62
2023/09/05 12:39:58;;;;;;;;;;;23.40;1.00;;;;;;4999067;28;19925;-62
2023/09/05 12:42:25;;;;;;;;;;;23.50;1.00;;;;;;4998740;28;19926;-61
2023/09/05 12:44:52;;;;;;;;;;;23.40;1.00;;;;;;4998732;28;19956;-62
2023/09/05 12:47:19;;;;;;;;;;;23.40;1.00;;;;;;4999093;28;19933;-60
2023/09/05 12:49:47;;;;;;;;;;;23.50;1.00;;;;;;4998989;28;19929;-58
2023/09/05 12:52:33;;;;;;;;;;;23.40;1.00;;;;;;4998704;28;19980;-61
2023/09/05 12:55:00;;;;;;;;;;;23.40;1.00;;;;;;4988557;28;19927;-61
2023/09/05 12:57:27;;;;;;;;;;;23.40;1.00;;;;;;4982626;28;20374;-61
2023/09/05 12:59:55;;;;;;;;;;;23.40;1.00;;;;;;4998920;28;20029;-61
2023/09/05 13:02:23;;;;;;;;;;;23.50;1.00;;;;;;4998651;28;19926;-62
2023/09/05 13:04:50;;;;;;;;;;;23.40;1.00;;;;;;4996219;28;19925;-60
2023/09/05 13:07:17;;;;;;;;;;;23.50;1.00;;;;;;4995655;28;19925;-61
2023/09/05 13:09:44;;;;;;;;;;;23.50;1.00;;;;;;4995908;28;19926;-62
2023/09/05 13:12:11;;;;;;;;;;;23.40;1.00;;;;;;4992391;28;19931;-63
2023/09/05 13:14:38;;;;;;;;;;;23.50;1.00;;;;;;4995863;28;19950;-61
2023/09/05 13:17:04;;;;;;;;;;;23.40;1.00;;;;;;4993599;28;19926;-61
2023/09/05 13:19:31;;;;;;;;;;;23.40;1.00;;;;;;4995928;28;20468;-61
2023/09/05 13:21:58;;;;;;;;;;;23.40;1.00;;;;;;4995739;28;19925;-62
2023/09/05 13:24:25;;;;;;;;;;;23.50;1.00;;;;;;4995525;28;19945;-62
2023/09/05 13:26:54;;;;;;;;;;;23.50;1.00;;;;;;5553856;23;19957;-60
2023/09/05 13:29:21;;;;;;;;;;;23.50;1.00;;;;;;4975834;28;20397;-61
2023/09/05 13:31:48;;;;;;;;;;;23.50;1.00;;;;;;4975255;28;19926;-61
2023/09/05 13:34:15;;;;;;;;;;;23.50;1.00;;;;;;4975384;28;19976;-62
2023/09/05 13:36:42;;;;;;;;;;;23.40;1.00;;;;;;4975322;28;19926;-61
2023/09/05 13:39:09;;;;;;;;;;;23.50;1.00;;;;;;4975477;28;19926;-61
2023/09/05 13:41:36;;;;;;;;;;;23.50;1.00;;;;;;4975240;28;19969;-62
2023/09/05 13:44:03;;;;;;;;;;;23.50;1.00;;;;;;4975480;28;19997;-62
2023/09/05 13:46:32;;;;;;;;;;;23.50;1.00;;;;;;4975334;28;19933;-62
2023/09/05 13:48:58;;;;;;;;;;;23.50;1.00;;;;;;4975819;28;20009;-61
2023/09/05 13:51:25;;;;;;;;;;;23.50;1.00;;;;;;4975159;28;19960;-61
2023/09/05 13:53:52;;;;;;;;;;;23.50;1.00;;;;;;4974962;28;19926;-62
2023/09/05 13:56:19;;;;;;;;;;;23.50;1.00;;;;;;4971659;28;20317;-61
2023/09/05 13:58:46;;;;;;;;;;;23.50;1.00;;;;;;5210698;23;19972;-61
2023/09/05 14:01:13;;;;;;;;;;;23.50;1.00;;;;;;4993929;28;20377;-61
2023/09/05 14:03:40;;;;;;;;;;;23.50;1.00;;;;;;4994457;28;19981;-61
2023/09/05 14:06:07;;;;;;;;;;;23.50;1.00;;;;;;4994283;28;19926;-61
2023/09/05 14:08:34;;;;;;;;;;;23.50;1.00;;;;;;4994347;28;20275;-61
2023/09/05 14:11:01;;;;;;;;;;;23.50;1.00;;;;;;4994283;28;19933;-62
2023/09/05 14:13:28;;;;;;;;;;;23.50;1.00;;;;;;4994228;28;20309;-62
2023/09/05 14:15:55;;;;;;;;;;;23.50;1.00;;;;;;4994082;28;19932;-62
2023/09/05 14:18:22;;;;;;;;;;;23.60;1.00;;;;;;4994149;28;19926;-61
2023/09/05 14:20:49;;;;;;;;;;;23.60;1.00;;;;;;4994283;28;19926;-61
2023/09/05 14:23:16;;;;;;;;;;;23.50;1.00;;;;;;4994614;28;19925;-61
2023/09/05 14:25:43;;;;;;;;;;;23.50;1.00;;;;;;4994159;28;19925;-61
2023/09/05 14:30:58;;;;;;;;;;;23.60;1.00;;;;;;4971819;28;20283;-62
2023/09/05 14:33:25;;;;;;;;;;;23.60;1.00;;;;;;4974477;28;19930;-62
2023/09/05 14:35:52;;;;;;;;;;;23.60;1.00;;;;;;4968205;28;19926;-62
2023/09/05 14:38:19;;;;;;;;;;;23.60;1.00;;;;;;4975848;28;20424;-63
2023/09/05 14:40:45;;;;;;;;;;;23.60;1.00;;;;;;4974066;28;20017;-61
2023/09/05 14:43:13;;;;;;;;;;;23.60;1.00;;;;;;4973978;28;19926;-61
2023/09/05 14:45:40;;;;;;;;;;;23.60;1.00;;;;;;4970260;28;19926;-61
2023/09/05 14:48:07;;;;;;;;;;;23.60;1.00;;;;;;4973375;28;20009;-62
2023/09/05 14:50:35;;;;;;;;;;;23.60;1.00;;;;;;4973607;28;19926;-60
2023/09/05 14:53:01;;;;;;;;;;;23.60;1.00;;;;;;4975375;28;19926;-62